Time;durP1;ratioP1;P1;durP2;ratioP2;P2;SDS_P1;SDS_P2;PMS_P1;PMS_P2;Temp;Humidity;BMP_temperature;BMP_pressure;BME280_temperature;BME280_humidity;BME280_pressure;Samples;Min_cycle;Max_cycle;Signal;HPM_P1;HPM_P2
2022/10/03 00:00:39;;;;;;;0.10;0.10;;;11.00;99.90;;;;;;4950077;29;20039;-77
2022/10/03 00:03:10;;;;;;;0.30;0.30;;;11.00;99.90;;;;;;4949736;29;20035;-77
2022/10/03 00:05:42;;;;;;;1.10;1.10;;;11.00;99.90;;;;;;5021928;28;20044;-76
2022/10/03 00:08:35;;;;;;;0.10;0.10;;;11.10;99.90;;;;;;5052202;28;20052;-77
2022/10/03 00:11:24;;;;;;;0.10;0.10;;;11.00;99.90;;;;;;5053820;28;20021;-77
2022/10/03 00:14:08;;;;;;;0.00;0.00;;;11.10;99.90;;;;;;5069594;28;20060;-77
2022/10/03 00:17:19;;;;;;;0.03;0.03;;;11.10;99.90;;;;;;5053203;28;20071;-77
2022/10/03 00:20:09;;;;;;;0.10;0.10;;;11.20;99.90;;;;;;4990553;28;20457;-77
2022/10/03 00:23:26;;;;;;;0.20;0.20;;;11.30;99.90;;;;;;4974049;28;20109;-77
2022/10/03 00:26:26;;;;;;;0.10;0.10;;;11.40;99.90;;;;;;4988780;28;20042;-77
2022/10/03 00:29:20;;;;;;;0.10;0.10;;;11.40;99.90;;;;;;4990755;28;20023;-77
2022/10/03 00:32:06;;;;;;;0.10;0.10;;;11.60;99.90;;;;;;4991453;28;20038;-77
2022/10/03 00:34:34;;;;;;;0.10;0.10;;;11.60;99.90;;;;;;4991685;28;20094;-77
2022/10/03 00:37:28;;;;;;;0.47;0.47;;;11.60;99.90;;;;;;4990112;28;20031;-77
2022/10/03 00:40:49;;;;;;;0.10;0.10;;;11.70;99.90;;;;;;4950144;29;20036;-77
2022/10/03 00:43:49;;;;;;;1.08;1.02;;;12.80;99.90;;;;;;4891167;29;20041;-79
2022/10/03 00:46:51;;;;;;;0.10;0.10;;;11.50;99.90;;;;;;4893713;29;20013;-77
2022/10/03 00:49:32;;;;;;;0.10;0.10;;;11.60;99.90;;;;;;4893643;29;20021;-77
2022/10/03 00:52:18;;;;;;;0.10;0.10;;;11.50;99.90;;;;;;4892679;29;20073;-77
2022/10/03 00:55:02;;;;;;;0.10;0.10;;;11.50;99.90;;;;;;4892437;29;20033;-78
2022/10/03 00:57:49;;;;;;;;;;;11.50;99.90;;;;;;4928761;29;20055;-77
2022/10/03 01:00:18;;;;;;;0.10;0.10;;;11.50;99.90;;;;;;4928892;29;19915;-76
2022/10/03 01:03:01;;;;;;;0.05;0.05;;;11.50;99.90;;;;;;4930907;29;20028;-78
2022/10/03 01:05:54;;;;;;;0.32;0.32;;;11.50;99.90;;;;;;4930668;29;20020;-77
2022/10/03 01:08:51;;;;;;;0.20;0.20;;;12.90;99.90;;;;;;4930328;29;20322;-79
2022/10/03 01:11:52;;;;;;;0.63;0.63;;;11.60;99.90;;;;;;4923972;29;20040;-79
2022/10/03 01:14:50;;;;;;;2.28;2.17;;;11.70;99.90;;;;;;4911227;29;20012;-77
2022/10/03 01:17:46;;;;;;;0.10;0.10;;;11.80;99.90;;;;;;5002568;28;20029;-78
2022/10/03 01:20:57;;;;;;;0.10;0.10;;;11.80;99.90;;;;;;5049182;28;20052;-78
2022/10/03 01:23:45;;;;;;;0.10;0.10;;;11.80;99.90;;;;;;4988278;28;20071;-77
2022/10/03 01:26:37;;;;;;;0.10;0.10;;;11.80;99.90;;;;;;4984981;28;20318;-77
2022/10/03 01:32:34;;;;;;;0.10;0.10;;;11.80;99.90;;;;;;4926894;29;20116;-78
2022/10/03 01:35:34;;;;;;;0.10;0.10;;;11.80;99.90;;;;;;4930652;29;20119;-78
2022/10/03 01:38:20;;;;;;;0.10;0.10;;;11.90;99.90;;;;;;4929732;29;20028;-77
2022/10/03 01:41:02;;;;;;;0.10;0.10;;;11.90;99.90;;;;;;4928594;29;20036;-77
2022/10/03 01:44:12;;;;;;;0.10;0.10;;;11.90;99.90;;;;;;4929000;29;20036;-77
2022/10/03 01:47:01;;;;;;;0.20;0.20;;;11.90;99.90;;;;;;4908339;29;20036;-77
2022/10/03 01:49:56;;;;;;;0.10;0.10;;;11.90;99.90;;;;;;4909320;29;20020;-77
2022/10/03 01:52:46;;;;;;;0.10;0.10;;;11.90;99.90;;;;;;4910094;29;20092;-77
2022/10/03 01:55:28;;;;;;;0.10;0.10;;;11.90;99.90;;;;;;4909350;29;20017;-77
2022/10/03 01:58:25;;;;;;;0.10;0.10;;;11.90;99.90;;;;;;4909621;29;20013;-77
2022/10/03 02:01:22;;;;;;;0.10;0.10;;;11.90;99.90;;;;;;4868468;29;20040;-77
2022/10/03 02:04:44;;;;;;;0.10;0.10;;;11.90;99.90;;;;;;4872867;29;20042;-77
2022/10/03 02:07:47;;;;;;;0.10;0.10;;;12.00;99.90;;;;;;4923852;29;20008;-77
2022/10/03 02:10:34;;;;;;;0.00;0.00;;;11.90;99.90;;;;;;4928624;29;20092;-79
2022/10/03 02:13:37;;;;;;;0.10;0.10;;;11.90;99.90;;;;;;4933940;29;20059;-76
2022/10/03 02:16:27;;;;;;;0.10;0.10;;;11.90;99.90;;;;;;4870696;29;20048;-77
2022/10/03 02:19:25;;;;;;;0.10;0.10;;;12.00;99.90;;;;;;4871291;29;20033;-77
2022/10/03 02:21:53;;;;;;;0.10;0.10;;;10.30;99.90;;;;;;4877468;29;20563;-77
2022/10/03 02:24:48;;;;;;;0.10;0.10;;;12.00;99.90;;;;;;4909352;29;20029;-77
2022/10/03 02:27:45;;;;;;;0.10;0.10;;;12.00;99.90;;;;;;4855350;29;20025;-77
2022/10/03 02:30:46;;;;;;;0.10;0.10;;;12.10;99.90;;;;;;4853948;29;20091;-77
2022/10/03 02:33:39;;;;;;;0.10;0.10;;;12.10;99.90;;;;;;4833461;29;20039;-77
2022/10/03 02:36:29;;;;;;;0.10;0.10;;;12.20;99.90;;;;;;4835461;29;20046;-78
2022/10/03 02:39:13;;;;;;;0.30;0.30;;;12.20;99.90;;;;;;4871357;29;20435;-78
2022/10/03 02:42:24;;;;;;;1.50;1.50;;;12.30;99.90;;;;;;4857833;29;20037;-77
2022/10/03 02:45:37;;;;;;;0.10;0.10;;;12.30;99.90;;;;;;4872384;29;20022;-78
2022/10/03 02:48:57;;;;;;;0.10;0.10;;;12.40;99.90;;;;;;4820314;29;20034;-78
2022/10/03 02:51:55;;;;;;;0.10;0.10;;;12.40;99.90;;;;;;4767640;29;20040;-79
2022/10/03 02:54:34;;;;;;;2.60;2.38;;;12.40;99.90;;;;;;4836292;29;20030;-77
2022/10/03 02:57:29;;;;;;;0.10;0.10;;;12.40;99.90;;;;;;4834113;29;20326;-78
2022/10/03 03:00:51;;;;;;;0.15;0.15;;;12.50;99.90;;;;;;4832307;29;20703;-78
2022/10/03 03:03:38;;;;;;;0.20;0.20;;;12.50;99.90;;;;;;4760406;30;20665;-77
2022/10/03 03:06:16;;;;;;;0.35;0.35;;;12.50;99.90;;;;;;4782090;30;20062;-77
2022/10/03 03:09:29;;;;;;;0.95;0.95;;;12.50;99.90;;;;;;4793365;29;20051;-79
2022/10/03 03:12:27;;;;;;;0.10;0.10;;;12.60;99.90;;;;;;4782188;30;20047;-78
2022/10/03 03:15:31;;;;;;;0.10;0.10;;;12.60;99.90;;;;;;4782954;30;20031;-78
2022/10/03 03:18:29;;;;;;;0.40;0.40;;;12.60;99.90;;;;;;4780511;30;20051;-75
2022/10/03 03:21:19;;;;;;;0.20;0.20;;;12.60;99.90;;;;;;4779518;30;20041;-77
2022/10/03 03:23:51;;;;;;;0.10;0.10;;;12.10;99.90;;;;;;4782948;30;20047;-78
2022/10/03 03:26:53;;;;;;;0.10;0.10;;;12.60;99.90;;;;;;4857728;29;20045;-77
2022/10/03 03:29:49;;;;;;;0.10;0.10;;;12.60;99.90;;;;;;4870541;29;20101;-77
2022/10/03 03:32:28;;;;;;;0.10;0.10;;;12.60;99.90;;;;;;4882060;29;20101;-79
2022/10/03 03:35:39;;;;;;;0.10;0.10;;;12.70;99.90;;;;;;4881812;29;20261;-81
2022/10/03 03:38:17;;;;;;;0.10;0.10;;;12.60;99.90;;;;;;4878974;29;20037;-79
2022/10/03 03:41:25;;;;;;;0.45;0.45;;;12.60;99.90;;;;;;4919615;29;20042;-85
2022/10/03 03:44:17;;;;;;;0.17;0.17;;;12.70;99.90;;;;;;4929675;29;20547;-78
2022/10/03 03:46:58;;;;;;;0.10;0.10;;;12.70;99.90;;;;;;4937253;29;20035;-78
2022/10/03 03:49:30;;;;;;;0.20;0.20;;;13.50;99.90;;;;;;4978364;28;20030;-77
2022/10/03 03:52:41;;;;;;;0.20;0.20;;;12.60;99.90;;;;;;5020057;28;20459;-79
2022/10/03 03:55:45;;;;;;;6.15;5.68;;;12.60;99.90;;;;;;5064192;28;20036;-77
2022/10/03 03:58:32;;;;;;;0.65;0.65;;;12.60;99.90;;;;;;5064918;28;20224;-77
2022/10/03 04:01:35;;;;;;;0.10;0.10;;;12.60;99.90;;;;;;5063967;28;20112;-77
2022/10/03 04:04:20;;;;;;;0.63;0.63;;;12.60;99.90;;;;;;5058271;28;20041;-77
2022/10/03 04:07:48;;;;;;;10.90;10.20;;;12.50;99.90;;;;;;5062961;28;20029;-77
2022/10/03 04:10:41;;;;;;;1.00;1.00;;;12.60;99.90;;;;;;4983451;28;20037;-79
2022/10/03 04:13:44;;;;;;;0.10;0.10;;;12.60;99.90;;;;;;4963576;28;20049;-78
2022/10/03 04:19:36;;;;;;;0.20;0.20;;;12.70;99.90;;;;;;4974548;28;20041;-79
2022/10/03 04:22:45;;;;;;;0.20;0.20;;;12.60;99.90;;;;;;4954785;28;20031;-79
2022/10/03 04:25:37;;;;;;;0.10;0.10;;;13.90;99.90;;;;;;4972587;28;20062;-80
2022/10/03 04:28:34;;;;;;;3.53;3.40;;;11.70;99.90;;;;;;4988665;28;20037;-80
2022/10/03 04:31:09;;;;;;;0.10;0.10;;;12.60;99.90;;;;;;4968519;28;20067;-80
2022/10/03 04:34:13;;;;;;;0.10;0.10;;;12.50;99.90;;;;;;4991016;28;20077;-78
2022/10/03 04:37:20;;;;;;;0.10;0.10;;;12.60;99.90;;;;;;4997800;28;20022;-78
2022/10/03 04:40:10;;;;;;;0.10;0.10;;;12.60;99.90;;;;;;5003448;28;20083;-77
2022/10/03 04:42:53;;;;;;;0.10;0.10;;;12.60;99.90;;;;;;5002871;28;20038;-79
2022/10/03 04:45:36;;;;;;;0.20;0.20;;;13.70;99.90;;;;;;5018295;28;20104;-79
2022/10/03 04:48:39;;;;;;;0.10;0.10;;;12.50;99.90;;;;;;5020629;28;20298;-79
2022/10/03 04:51:20;;;;;;;0.15;0.15;;;12.50;99.90;;;;;;4947629;29;20084;-78
2022/10/03 04:54:21;;;;;;;0.17;0.17;;;12.50;99.90;;;;;;4946108;29;20087;-78
2022/10/03 04:57:11;;;;;;;0.10;0.10;;;12.50;99.90;;;;;;4927225;29;20555;-91
2022/10/03 05:00:34;;;;;;;0.10;0.10;;;13.30;99.90;;;;;;4945668;29;20848;-78
2022/10/03 05:03:12;;;;;;;0.20;0.20;;;9.50;99.90;;;;;;4947925;29;20080;-78
2022/10/03 05:05:57;;;;;;;4.40;4.05;;;12.40;99.90;;;;;;4947796;29;20556;-79
2022/10/03 05:08:49;;;;;;;0.10;0.10;;;12.20;99.90;;;;;;4947776;29;20303;-78
2022/10/03 05:12:02;;;;;;;0.10;0.10;;;12.20;99.90;;;;;;4949097;29;20044;-78
2022/10/03 05:15:21;;;;;;;0.10;0.10;;;12.20;99.90;;;;;;4946358;29;20047;-78
2022/10/03 05:18:34;;;;;;;0.20;0.20;;;12.30;99.90;;;;;;4940042;29;20036;-78
2022/10/03 05:21:26;;;;;;;0.10;0.10;;;12.20;99.90;;;;;;4942705;29;20056;-78
2022/10/03 05:24:31;;;;;;;0.10;0.10;;;10.60;99.90;;;;;;5067112;23;20091;-77
2022/10/03 05:27:25;;;;;;;0.10;0.10;;;12.20;99.90;;;;;;5081515;28;20088;-77
2022/10/03 05:30:19;;;;;;;0.28;0.28;;;12.20;99.90;;;;;;5090281;28;20047;-79
2022/10/03 05:33:35;;;;;;;0.20;0.20;;;12.00;99.90;;;;;;5080585;28;20040;-78
2022/10/03 05:36:40;;;;;;;0.43;0.43;;;12.20;99.90;;;;;;4989359;28;20331;-81
2022/10/03 05:39:30;;;;;;;0.10;0.10;;;12.10;99.90;;;;;;4999377;28;20021;-78
2022/10/03 05:42:21;;;;;;;0.10;0.10;;;12.10;99.90;;;;;;5020665;28;20109;-77
2022/10/03 05:45:21;;;;;;;0.10;0.10;;;12.20;99.90;;;;;;5019176;28;20046;-77
2022/10/03 05:48:23;;;;;;;0.13;0.13;;;12.20;99.90;;;;;;5009451;28;20065;-77
2022/10/03 05:51:32;;;;;;;0.20;0.20;;;12.30;99.90;;;;;;5013514;28;20048;-76
2022/10/03 05:54:08;;;;;;;0.10;0.10;;;12.90;99.90;;;;;;4993867;28;20184;-77
2022/10/03 05:56:55;;;;;;;0.15;0.15;;;12.30;99.90;;;;;;4990916;28;20326;-79
2022/10/03 05:59:42;;;;;;;0.20;0.20;;;12.40;99.90;;;;;;4989559;28;20054;-79
2022/10/03 06:02:41;;;;;;;0.10;0.10;;;12.30;99.90;;;;;;4988610;28;20033;-78
2022/10/03 06:05:30;;;;;;;0.30;0.30;;;12.40;99.90;;;;;;5009072;28;20338;-78
2022/10/03 06:08:26;;;;;;;0.20;0.20;;;12.40;99.90;;;;;;5009812;28;20022;-80
2022/10/03 06:11:07;;;;;;;0.10;0.10;;;12.50;99.90;;;;;;5060222;28;20570;-80
2022/10/03 06:14:15;;;;;;;0.10;0.10;;;8.90;99.90;;;;;;5084373;28;20359;-82
2022/10/03 06:17:05;;;;;;;0.20;0.20;;;12.40;99.90;;;;;;5042404;28;20078;-81
2022/10/03 06:19:43;;;;;;;12.85;7.57;;;12.30;99.90;;;;;;5049780;28;20036;-87
2022/10/03 06:22:42;;;;;;;0.10;0.10;;;12.20;99.90;;;;;;5038150;28;20022;-78
2022/10/03 06:25:48;;;;;;;0.10;0.10;;;12.30;99.90;;;;;;5048636;28;20025;-78
2022/10/03 06:28:58;;;;;;;0.17;0.17;;;10.50;99.90;;;;;;4987402;28;20054;-77
2022/10/03 06:31:44;;;;;;;0.17;0.17;;;12.30;99.90;;;;;;4952118;29;20338;-77
2022/10/03 06:34:49;;;;;;;0.10;0.10;;;12.30;99.90;;;;;;4935947;29;20117;-77
2022/10/03 06:38:12;;;;;;;0.20;0.20;;;9.20;99.90;;;;;;4936904;29;20391;-77
2022/10/03 06:41:23;;;;;;;0.35;0.35;;;12.20;99.90;;;;;;4863944;29;20045;-77
2022/10/03 06:44:03;;;;;;;0.52;0.52;;;12.20;99.90;;;;;;4840271;29;20038;-78
2022/10/03 06:46:32;;;;;;;0.32;0.32;;;12.30;99.90;;;;;;4820156;29;20041;-77
2022/10/03 06:50:07;;;;;;;0.40;0.40;;;12.70;99.90;;;;;;4825442;29;20063;-77
2022/10/03 06:53:15;;;;;;;0.10;0.10;;;12.20;99.90;;;;;;4780137;30;20051;-77
2022/10/03 06:56:15;;;;;;;0.10;0.10;;;12.20;99.90;;;;;;4798366;30;20089;-79
2022/10/03 06:59:36;;;;;;;0.10;0.10;;;12.20;99.90;;;;;;4788136;30;20062;-77
2022/10/03 07:02:16;;;;;;;7.93;7.28;;;12.20;99.90;;;;;;4791872;30;20215;-77
2022/10/03 07:05:06;;;;;;;0.10;0.10;;;9.60;99.90;;;;;;4801289;29;20054;-77
2022/10/03 07:08:22;;;;;;;0.10;0.10;;;13.20;99.90;;;;;;4872311;29;20033;-78
2022/10/03 07:11:37;;;;;;;0.10;0.10;;;12.30;99.90;;;;;;4882245;29;20056;-76
2022/10/03 07:14:40;;;;;;;0.10;0.10;;;15.30;99.90;;;;;;4838120;29;20077;-85
2022/10/03 07:17:40;;;;;;;0.30;0.30;;;12.30;99.90;;;;;;4873135;29;20038;-77
2022/10/03 07:20:08;;;;;;;0.10;0.10;;;12.40;99.90;;;;;;4881492;29;20238;-77
2022/10/03 07:22:53;;;;;;;0.55;0.55;;;12.40;99.90;;;;;;4885038;29;20044;-79
2022/10/03 07:25:52;;;;;;;0.10;0.10;;;13.00;99.90;;;;;;4870993;29;20033;-84
2022/10/03 07:29:05;;;;;;;13.32;12.07;;;12.50;99.90;;;;;;4928373;28;20130;-81
2022/10/03 07:31:49;;;;;;;0.30;0.30;;;12.60;99.90;;;;;;4922755;29;20048;-80
2022/10/03 07:34:53;;;;;;;3.35;3.17;;;12.90;99.90;;;;;;4920832;29;20306;-79
2022/10/03 07:40:23;;;;;;;0.10;0.10;;;13.10;99.90;;;;;;4882144;29;20039;-82
2022/10/03 07:43:26;;;;;;;0.10;0.10;;;13.20;99.90;;;;;;4899636;29;20110;-80
2022/10/03 07:46:11;;;;;;;0.35;0.35;;;13.50;99.90;;;;;;4919035;29;20518;-80
2022/10/03 07:48:49;;;;;;;0.30;0.30;;;13.70;99.90;;;;;;4920845;29;20222;-86
2022/10/03 07:51:28;;;;;;;1.20;1.20;;;14.00;99.90;;;;;;4920774;29;20318;-83
2022/10/03 07:54:23;;;;;;;2.22;2.08;;;14.00;99.90;;;;;;4920871;29;20028;-82
2022/10/03 07:57:24;;;;;;;0.10;0.10;;;14.10;99.90;;;;;;4905097;29;20019;-78
2022/10/03 07:59:53;;;;;;;0.10;0.10;;;14.30;99.90;;;;;;4905372;29;20051;-86
2022/10/03 08:02:27;;;;;;;0.65;0.65;;;14.40;99.90;;;;;;4904430;29;20265;-85
2022/10/03 08:05:29;;;;;;;0.20;0.20;;;14.40;99.90;;;;;;4920861;29;20047;-90
2022/10/03 08:08:20;;;;;;;0.10;0.10;;;14.30;99.90;;;;;;4888454;29;20394;-80
2022/10/03 08:11:05;;;;;;;0.10;0.10;;;16.20;99.90;;;;;;4945260;28;20641;-82
2022/10/03 08:13:33;;;;;;;0.10;0.10;;;14.30;99.90;;;;;;5017342;28;20025;-84
2022/10/03 08:16:17;;;;;;;0.10;0.10;;;14.20;99.90;;;;;;5000308;28;20094;-77
2022/10/03 08:19:16;;;;;;;0.13;0.13;;;14.30;99.90;;;;;;5016508;28;20022;-80
2022/10/03 08:22:07;;;;;;;0.10;0.10;;;14.40;99.90;;;;;;5016936;28;20119;-77
2022/10/03 08:24:53;;;;;;;0.32;0.32;;;14.40;99.90;;;;;;5017259;28;20060;-85
2022/10/03 08:27:37;;;;;;;0.10;0.10;;;14.50;99.90;;;;;;5001000;28;20017;-83
2022/10/03 08:30:22;;;;;;;0.10;0.10;;;14.70;99.90;;;;;;5017704;28;20038;-77
2022/10/03 08:33:25;;;;;;;0.10;0.10;;;14.90;99.90;;;;;;5017471;28;20029;-82
2022/10/03 08:36:13;;;;;;;0.30;0.30;;;14.90;99.90;;;;;;5001409;28;20055;-80
2022/10/03 08:38:52;;;;;;;0.10;0.10;;;14.70;99.90;;;;;;5017014;28;20052;-83
2022/10/03 08:41:42;;;;;;;0.13;0.13;;;15.10;99.90;;;;;;5011195;28;20024;-76
2022/10/03 08:44:26;;;;;;;0.10;0.10;;;15.10;99.90;;;;;;5059440;28;20016;-86
2022/10/03 08:47:07;;;;;;;0.10;0.10;;;15.00;99.90;;;;;;5058332;28;20039;-84
2022/10/03 08:49:51;;;;;;;1.85;1.75;;;15.10;99.90;;;;;;5061674;28;20024;-82
2022/10/03 08:52:43;;;;;;;0.47;0.47;;;15.40;99.90;;;;;;5058396;28;20639;-79
2022/10/03 08:55:47;;;;;;;0.10;0.10;;;15.60;99.90;;;;;;5059320;28;20021;-80
2022/10/03 08:58:28;;;;;;;0.00;0.00;;;15.90;99.90;;;;;;5017042;28;20513;-80
2022/10/03 09:01:12;;;;;;;0.10;0.10;;;16.20;99.90;;;;;;5016091;28;20033;-77
2022/10/03 09:04:05;;;;;;;0.10;0.10;;;16.40;99.90;;;;;;5020864;28;20030;-78
2022/10/03 09:06:59;;;;;;;0.10;0.10;;;16.60;99.90;;;;;;5017217;28;20176;-76
2022/10/03 09:10:06;;;;;;;0.10;0.10;;;15.90;99.90;;;;;;5016875;28;20029;-81
2022/10/03 09:12:32;;;;;;;1.17;1.08;;;16.70;99.90;;;;;;4999870;28;20065;-77
2022/10/03 09:15:35;;;;;;;0.10;0.10;;;16.40;99.90;;;;;;5017756;28;20556;-80
2022/10/03 09:18:26;;;;;;;1.38;1.35;;;16.30;99.90;;;;;;5018447;28;20396;-78
2022/10/03 09:21:25;;;;;;;0.10;0.10;;;16.10;99.90;;;;;;5016442;28;20057;-83
2022/10/03 09:23:50;;;;;;;1.17;1.17;;;15.90;99.90;;;;;;5017807;28;20609;-79
2022/10/03 09:26:37;;;;;;;0.10;0.10;;;15.80;99.90;;;;;;5017214;28;20022;-75
2022/10/03 09:29:09;;;;;;;0.10;0.10;;;13.70;99.90;;;;;;5017888;28;20080;-83
2022/10/03 09:32:12;;;;;;;0.10;0.10;;;15.60;99.90;;;;;;5017232;28;20039;-76
2022/10/03 09:34:50;;;;;;;0.10;0.10;;;15.40;99.90;;;;;;5029110;28;20068;-78
2022/10/03 09:37:18;;;;;;;0.82;0.82;;;15.40;99.90;;;;;;5059079;28;20028;-78
2022/10/03 09:40:15;;;;;;;0.35;0.35;;;15.50;99.90;;;;;;5058734;28;20622;-85
2022/10/03 09:43:00;;;;;;;0.10;0.10;;;16.50;99.90;;;;;;5059997;28;20028;-80
2022/10/03 09:45:38;;;;;;;0.10;0.10;;;15.80;99.90;;;;;;5059710;28;20232;-84
2022/10/03 09:48:07;;;;;;;0.10;0.10;;;15.90;99.90;;;;;;5064111;28;20700;-83
2022/10/03 09:50:54;;;;;;;0.10;0.10;;;16.20;99.90;;;;;;5066179;28;20021;-85
2022/10/03 09:53:38;;;;;;;0.10;0.10;;;16.60;99.90;;;;;;5068046;28;20033;-80
2022/10/03 09:56:12;;;;;;;0.10;0.10;;;16.80;99.90;;;;;;5066119;28;20027;-80
2022/10/03 09:59:15;;;;;;;0.10;0.10;;;16.80;99.90;;;;;;5063571;28;20438;-79
2022/10/03 10:02:26;;;;;;;0.10;0.10;;;17.20;99.90;;;;;;5063036;28;20028;-78
2022/10/03 10:05:06;;;;;;;0.10;0.10;;;17.40;99.90;;;;;;5061181;28;20300;-77
2022/10/03 10:07:57;;;;;;;0.10;0.10;;;17.50;99.90;;;;;;5062007;28;20100;-81
2022/10/03 10:10:41;;;;;;;0.10;0.10;;;17.80;99.90;;;;;;5059434;28;20032;-80
2022/10/03 10:13:29;;;;;;;0.10;0.10;;;18.00;98.30;;;;;;5061867;28;20251;-76
2022/10/03 10:16:08;;;;;;;0.10;0.10;;;17.80;97.90;;;;;;5065709;28;20100;-80
2022/10/03 10:18:58;;;;;;;0.85;0.85;;;17.60;99.30;;;;;;5067739;28;20040;-79
2022/10/03 10:21:32;;;;;;;0.10;0.10;;;17.90;96.90;;;;;;5066048;28;20031;-77
2022/10/03 10:24:02;;;;;;;0.10;0.10;;;18.20;97.20;;;;;;5086650;28;20048;-87
2022/10/03 10:26:49;;;;;;;0.00;0.00;;;18.50;96.20;;;;;;5089613;28;20024;-81
2022/10/03 10:29:24;;;;;;;0.10;0.10;;;18.80;93.60;;;;;;5085937;28;20024;-82
2022/10/03 10:32:19;;;;;;;0.10;0.10;;;19.00;93.50;;;;;;5066371;28;20445;-78
2022/10/03 10:35:15;;;;;;;0.10;0.10;;;18.80;93.80;;;;;;5082644;28;20032;-78
2022/10/03 10:38:18;;;;;;;0.10;0.10;;;18.80;92.50;;;;;;5062475;28;20433;-82
2022/10/03 10:41:11;;;;;;;0.10;0.10;;;18.90;90.70;;;;;;5080926;28;20556;-78
2022/10/03 10:44:20;;;;;;;0.10;0.10;;;19.00;90.40;;;;;;5084732;28;20035;-84
2022/10/03 10:47:28;;;;;;;0.10;0.10;;;19.30;90.00;;;;;;5083308;28;20055;-88
2022/10/03 10:50:07;;;;;;;0.10;0.10;;;19.50;87.80;;;;;;5064036;28;20070;-80
2022/10/03 10:53:07;;;;;;;0.10;0.10;;;20.30;90.80;;;;;;5079859;28;20035;-79
2022/10/03 10:55:44;;;;;;;0.25;0.25;;;20.50;91.10;;;;;;5079208;28;20283;-85
2022/10/03 10:58:28;;;;;;;0.00;0.00;;;20.40;81.60;;;;;;5080565;28;20116;-82
2022/10/03 11:00:57;;;;;;;0.10;0.10;;;20.20;82.20;;;;;;5084165;28;20087;-90
2022/10/03 11:03:29;;;;;;;0.10;0.10;;;20.00;82.90;;;;;;5063518;28;20113;-78
2022/10/03 11:06:26;;;;;;;0.10;0.10;;;18.30;82.30;;;;;;5065164;28;20092;-88
2022/10/03 11:09:06;;;;;;;0.10;0.10;;;20.50;84.80;;;;;;5084845;28;20043;-86
2022/10/03 11:12:31;;;;;;;0.10;0.10;;;19.50;84.20;;;;;;5081980;28;20054;-78
2022/10/03 11:15:13;;;;;;;0.10;0.10;;;19.20;84.20;;;;;;4982608;28;20021;-80
2022/10/03 11:18:17;;;;;;;0.10;0.10;;;19.00;83.60;;;;;;5000299;28;20033;-80
2022/10/03 11:20:57;;;;;;;0.10;0.10;;;18.60;82.80;;;;;;5000099;28;20038;-84
2022/10/03 11:23:37;;;;;;;0.10;0.10;;;18.80;83.20;;;;;;4983176;28;20263;-77
2022/10/03 11:26:24;;;;;;;0.10;0.10;;;18.90;83.00;;;;;;4983064;28;20048;-78
2022/10/03 11:29:15;;;;;;;0.00;0.00;;;19.20;86.20;;;;;;4999521;28;20022;-77
2022/10/03 11:32:11;;;;;;;0.10;0.10;;;19.20;84.20;;;;;;4999369;28;20033;-82
2022/10/03 11:35:05;;;;;;;0.10;0.10;;;19.60;86.50;;;;;;4999222;28;20100;-78
2022/10/03 11:37:57;;;;;;;0.10;0.10;;;19.40;85.80;;;;;;4982698;28;20531;-77
2022/10/03 11:40:34;;;;;;;0.10;0.10;;;19.40;83.30;;;;;;4940843;29;20526;-79
2022/10/03 11:43:19;;;;;;;0.10;0.10;;;20.40;85.90;;;;;;4941406;29;20130;-77
2022/10/03 11:46:04;;;;;;;0.10;0.10;;;19.80;84.60;;;;;;4969108;28;20266;-80
2022/10/03 11:48:36;;;;;;;0.00;0.00;;;20.10;82.80;;;;;;4999763;28;20029;-80
2022/10/03 11:51:09;;;;;;;0.28;0.28;;;20.40;81.80;;;;;;4982795;28;20034;-78
2022/10/03 11:53:45;;;;;;;0.10;0.10;;;20.60;82.30;;;;;;4981810;28;20129;-80
2022/10/03 11:56:39;;;;;;;0.10;0.10;;;20.60;80.80;;;;;;4981774;28;20117;-80
2022/10/03 11:59:35;;;;;;;0.10;0.10;;;20.40;80.90;;;;;;4981389;28;20438;-81
2022/10/03 12:02:09;;;;;;;0.00;0.00;;;19.80;80.20;;;;;;4997468;28;20029;-77
2022/10/03 12:05:02;;;;;;;0.10;0.10;;;19.00;82.20;;;;;;4997364;28;20109;-77
2022/10/03 12:10:37;;;;;;;;;;;16.70;85.70;;;;;;4997812;28;20276;-79
2022/10/03 12:13:11;;;;;;;0.10;0.10;;;18.50;85.70;;;;;;4997249;28;20348;-78
2022/10/03 12:15:37;;;;;;;0.10;0.10;;;18.40;85.80;;;;;;4997714;28;20029;-79
2022/10/03 12:18:23;;;;;;;0.10;0.10;;;18.70;86.40;;;;;;5042299;28;20220;-77
2022/10/03 12:21:32;;;;;;;0.10;0.10;;;19.00;86.10;;;;;;5061490;28;20111;-77
2022/10/03 12:24:17;;;;;;;0.20;0.20;;;19.10;84.90;;;;;;4996468;28;20504;-83
2022/10/03 12:26:53;;;;;;;0.40;0.40;;;19.20;83.80;;;;;;4998910;28;20045;-81
2022/10/03 12:29:23;;;;;;;0.10;0.10;;;19.80;83.10;;;;;;4997710;28;20564;-80
2022/10/03 12:32:01;;;;;;;0.65;0.65;;;20.00;81.80;;;;;;4998171;28;20053;-82
2022/10/03 12:34:39;;;;;;;0.10;0.10;;;20.70;81.60;;;;;;4999693;28;20567;-78
2022/10/03 12:37:26;;;;;;;0.10;0.10;;;21.60;79.30;;;;;;4981258;28;20030;-83
2022/10/03 12:40:13;;;;;;;0.10;0.10;;;21.80;76.10;;;;;;4997476;28;20525;-80
2022/10/03 12:42:59;;;;;;;0.10;0.10;;;22.10;74.60;;;;;;4998330;28;20082;-84
2022/10/03 12:45:35;;;;;;;0.10;0.10;;;22.40;74.40;;;;;;4997616;28;20033;-82
2022/10/03 12:48:21;;;;;;;0.10;0.10;;;22.40;72.20;;;;;;4997638;28;20026;-84
2022/10/03 12:51:11;;;;;;;0.10;0.10;;;22.20;71.50;;;;;;4981066;28;20033;-85
2022/10/03 12:53:46;;;;;;;0.22;0.22;;;21.90;70.90;;;;;;4997978;28;20061;-80
2022/10/03 12:56:14;;;;;;;0.68;0.68;;;21.70;72.70;;;;;;4981480;28;20125;-78
2022/10/03 12:58:52;;;;;;;0.10;0.10;;;21.20;73.20;;;;;;4995193;28;20042;-85
2022/10/03 13:01:30;;;;;;;0.10;0.10;;;21.10;74.10;;;;;;5080376;28;20073;-80
2022/10/03 13:04:18;;;;;;;0.15;0.15;;;21.20;74.60;;;;;;5079874;28;20222;-78
2022/10/03 13:07:23;;;;;;;0.10;0.10;;;21.70;73.50;;;;;;5080057;28;20020;-78
2022/10/03 13:10:13;;;;;;;0.10;0.10;;;22.20;71.50;;;;;;5079044;28;20232;-79
2022/10/03 13:13:04;;;;;;;0.00;0.00;;;22.30;70.00;;;;;;5061553;28;20036;-78
2022/10/03 13:15:39;;;;;;;0.10;0.10;;;22.40;66.50;;;;;;5061576;28;20024;-80
2022/10/03 13:18:32;;;;;;;0.10;0.10;;;22.00;66.50;;;;;;5079706;28;20091;-86
2022/10/03 13:21:26;;;;;;;0.10;0.10;;;21.60;65.30;;;;;;5083064;28;20016;-84
2022/10/03 13:23:58;;;;;;;0.10;0.10;;;20.50;67.90;;;;;;5065232;28;20047;-84
2022/10/03 13:26:43;;;;;;;0.10;0.10;;;19.90;69.70;;;;;;5084827;28;20212;-77
2022/10/03 13:29:33;;;;;;;0.10;0.10;;;19.40;69.60;;;;;;5067519;28;20024;-82
2022/10/03 13:32:24;;;;;;;0.10;0.10;;;19.00;71.60;;;;;;5083572;28;20091;-82
2022/10/03 13:38:15;;;;;;;0.10;0.10;;;18.50;73.20;;;;;;5082920;28;20035;-79
2022/10/03 13:40:54;;;;;;;0.10;0.10;;;19.00;72.70;;;;;;5082173;28;20023;-84
2022/10/03 13:43:26;;;;;;;0.10;0.10;;;19.70;72.00;;;;;;5083510;28;20031;-79
2022/10/03 13:45:56;;;;;;;0.00;0.00;;;20.50;70.90;;;;;;5082410;28;20028;-78
2022/10/03 13:48:27;;;;;;;0.10;0.10;;;20.80;68.40;;;;;;5064718;28;20490;-78
2022/10/03 13:51:01;;;;;;;0.00;0.00;;;21.10;66.50;;;;;;5062914;28;20127;-80
2022/10/03 13:53:46;;;;;;;0.10;0.10;;;21.10;66.70;;;;;;5083064;28;20031;-82
2022/10/03 13:56:23;;;;;;;0.08;0.08;;;21.40;66.10;;;;;;5084390;28;20012;-80
2022/10/03 13:59:23;;;;;;;0.10;0.10;;;21.70;64.70;;;;;;5062831;28;20028;-78
2022/10/03 14:01:59;;;;;;;0.10;0.10;;;21.80;64.90;;;;;;5080547;28;20577;-81
2022/10/03 14:04:47;;;;;;;0.05;0.05;;;22.00;63.90;;;;;;5060390;28;20032;-81
2022/10/03 14:07:26;;;;;;;0.10;0.10;;;19.60;62.50;;;;;;5078933;28;20032;-88
2022/10/03 14:10:01;;;;;;;0.10;0.10;;;22.20;62.30;;;;;;5059874;28;20016;-81
2022/10/03 14:12:52;;;;;;;0.10;0.10;;;21.40;66.00;;;;;;5059522;28;20028;-80
2022/10/03 14:15:27;;;;;;;0.20;0.20;;;20.70;65.70;;;;;;5078277;28;20024;-85
2022/10/03 14:18:25;;;;;;;0.10;0.10;;;20.00;68.00;;;;;;5078335;28;20028;-83
2022/10/03 14:21:28;;;;;;;0.10;0.10;;;19.30;70.70;;;;;;4994755;28;20042;-82
2022/10/03 14:24:26;;;;;;;0.10;0.10;;;18.10;72.50;;;;;;4996197;28;20046;-86
2022/10/03 14:27:00;;;;;;;0.03;0.03;;;18.00;73.50;;;;;;4936790;29;20039;-78
2022/10/03 14:29:45;;;;;;;0.05;0.05;;;17.80;74.00;;;;;;4938818;29;20459;-76
2022/10/03 14:32:17;;;;;;;0.10;0.10;;;17.30;75.10;;;;;;4936468;29;20544;-78
2022/10/03 14:35:04;;;;;;;0.20;0.20;;;17.20;76.10;;;;;;4937411;29;20573;-86
2022/10/03 14:37:38;;;;;;;0.20;0.20;;;17.60;76.80;;;;;;4938422;29;20127;-89
2022/10/03 14:40:12;;;;;;;0.38;0.32;;;18.00;78.60;;;;;;4937966;29;20415;-80
2022/10/03 14:43:05;;;;;;;0.10;0.10;;;19.00;80.90;;;;;;4923395;29;20074;-81
2022/10/03 14:45:40;;;;;;;0.10;0.10;;;18.80;78.80;;;;;;4938520;29;20039;-80
2022/10/03 14:48:15;;;;;;;0.10;0.10;;;20.40;76.30;;;;;;4939901;29;20120;-80
2022/10/03 14:50:42;;;;;;;0.10;0.10;;;21.00;74.50;;;;;;4928314;29;20682;-81
2022/10/03 14:53:23;;;;;;;0.10;0.10;;;21.70;73.30;;;;;;4941881;29;20080;-77
2022/10/03 14:55:54;;;;;;;0.17;0.17;;;23.60;72.70;;;;;;4942283;28;20057;-86
2022/10/03 14:58:31;;;;;;;0.10;0.10;;;23.20;69.90;;;;;;4995467;28;20034;-82
2022/10/03 15:01:01;;;;;;;0.05;0.05;;;23.60;67.70;;;;;;4999926;28;20042;-79